Time;durP1;ratioP1;P1;durP2;ratioP2;P2;SDS_P1;SDS_P2;PMS_P1;PMS_P2;Temp;Humidity;BMP_temperature;BMP_pressure;BME280_temperature;BME280_humidity;BME280_pressure;Samples;Min_cycle;Max_cycle;Signal;HPM_P1;HPM_P2
2021/07/26 00:00:57;;;;;;;;;;;;;;;22.97;69.11;99935.30;1712665;82;20217;-75
2021/07/26 00:03:23;;;;;;;;;;;;;;;22.94;69.07;99925.82;1704662;82;20116;-79
2021/07/26 00:05:57;;;;;;;;;;;;;;;22.81;70.08;99918.08;1705870;82;22109;-80
2021/07/26 00:08:23;;;;;;;;;;;;;;;22.93;69.28;99917.48;1708719;82;20269;-79
2021/07/26 00:10:50;;;;;;;;;;;;;;;22.91;69.25;99918.77;1710987;82;20184;-74
2021/07/26 00:13:16;;;;;;;;;;;;;;;22.97;68.68;99915.64;1700153;82;20650;-78
2021/07/26 00:15:41;;;;;;;;;;;;;;;22.99;68.41;99913.52;1702697;82;20726;-75
2021/07/26 00:18:07;;;;;;;;;;;;;;;22.94;68.08;99909.66;1704037;82;21075;-74
2021/07/26 00:20:32;;;;;;;;;;;;;;;23.07;67.44;99905.86;1712138;82;20463;-75
2021/07/26 00:22:58;;;;;;;;;;;;;;;23.04;67.19;99908.20;1708140;82;20142;-75
2021/07/26 00:25:24;;;;;;;;;;;;;;;22.94;67.07;99904.28;1704332;82;20130;-77
2021/07/26 00:27:49;;;;;;;;;;;;;;;22.99;67.36;99910.81;1716454;82;20234;-75
2021/07/26 00:30:15;;;;;;;;;;;;;;;22.91;68.06;99902.08;1705175;82;21076;-80
2021/07/26 00:32:40;;;;;;;;;;;;;;;22.92;68.01;99896.18;1700365;82;20777;-76
2021/07/26 00:35:06;;;;;;;;;;;;;;;22.84;68.01;99900.59;1709194;82;20186;-76
2021/07/26 00:37:32;;;;;;;;;;;;;;;22.82;67.58;99892.77;1712728;82;20612;-76
2021/07/26 00:39:59;;;;;;;;;;;;;;;22.84;67.97;99890.66;1710759;82;20447;-79
2021/07/26 00:42:25;;;;;;;;;;;;;;;22.90;68.02;99884.30;1704253;82;21049;-77
2021/07/26 00:44:50;;;;;;;;;;;;;;;22.91;67.98;99879.73;1704952;82;20470;-79
2021/07/26 00:47:16;;;;;;;;;;;;;;;22.85;68.25;99890.93;1711331;82;20114;-76
2021/07/26 00:49:41;;;;;;;;;;;;;;;22.85;68.23;99884.20;1709126;82;20130;-80
2021/07/26 00:52:07;;;;;;;;;;;;;;;22.87;67.88;99883.45;1712119;82;20174;-78
2021/07/26 00:54:35;;;;;;;;;;;;;;;22.82;67.82;99877.95;1714271;83;21858;-77
2021/07/26 00:57:01;;;;;;;;;;;;;;;22.81;67.65;99877.69;1713685;82;20150;-78
2021/07/26 00:59:27;;;;;;;;;;;;;;;22.85;67.68;99873.43;1708709;82;20203;-75
2021/07/26 01:01:52;;;;;;;;;;;;;;;22.86;67.25;99872.37;1706022;83;20146;-76
2021/07/26 01:04:18;;;;;;;;;;;;;;;22.83;67.22;99872.06;1712406;82;20180;-80
2021/07/26 01:06:43;;;;;;;;;;;;;;;22.76;67.23;99866.81;1702147;82;21068;-76
2021/07/26 01:09:09;;;;;;;;;;;;;;;22.75;67.15;99867.89;1712506;82;20523;-78
2021/07/26 01:11:35;;;;;;;;;;;;;;;22.74;67.01;99860.87;1710919;82;21389;-76
2021/07/26 01:14:00;;;;;;;;;;;;;;;22.73;67.15;99860.06;1710472;83;20177;-76
2021/07/26 01:16:26;;;;;;;;;;;;;;;22.75;66.97;99862.52;1705346;82;20577;-78
2021/07/26 01:18:51;;;;;;;;;;;;;;;22.74;66.65;99859.52;1708288;82;21037;-82
2021/07/26 01:21:18;;;;;;;;;;;;;;;22.74;66.45;99858.17;1710942;82;20472;-78
2021/07/26 01:23:46;;;;;;;;;;;;;;;22.76;66.22;99858.23;1702586;83;20208;-78
2021/07/26 01:26:14;;;;;;;;;;;;;;;22.78;66.02;99851.25;1699136;82;20182;-77
2021/07/26 01:28:42;;;;;;;;;;;;;;;22.80;65.87;99854.51;1708719;82;20123;-76
2021/07/26 01:31:07;;;;;;;;;;;;;;;22.81;65.79;99857.50;1708529;82;21921;-83
2021/07/26 01:33:33;;;;;;;;;;;;;;;22.83;65.62;99851.33;1705405;82;20137;-79
2021/07/26 01:35:59;;;;;;;;;;;;;;;22.81;65.55;99848.08;1703079;82;20235;-76
2021/07/26 01:38:25;;;;;;;;;;;;;;;22.84;65.62;99848.09;1705161;82;20261;-76
2021/07/26 01:40:53;;;;;;;;;;;;;;;22.80;65.49;99849.13;1706395;82;20170;-82
2021/07/26 01:43:18;;;;;;;;;;;;;;;22.76;65.29;99853.36;1692064;82;20280;-76
2021/07/26 01:45:50;;;;;;;;;;;;;;;22.72;65.46;99850.88;1697907;82;20201;-75
2021/07/26 01:48:25;;;;;;;;;;;;;;;22.71;65.32;99849.23;1709116;83;20232;-79
2021/07/26 01:50:53;;;;;;;;;;;;;;;22.69;65.45;99852.17;1710437;82;20210;-78
2021/07/26 01:53:18;;;;;;;;;;;;;;;22.72;65.20;99849.54;1700410;82;20248;-81
2021/07/26 01:55:44;;;;;;;;;;;;;;;22.71;65.09;99848.70;1706176;83;21016;-77
2021/07/26 01:58:10;;;;;;;;;;;;;;;22.74;64.84;99848.22;1700161;82;20192;-79
2021/07/26 02:00:35;;;;;;;;;;;;;;;22.71;64.75;99846.55;1701199;83;20180;-84
2021/07/26 02:03:01;;;;;;;;;;;;;;;22.71;64.73;99847.90;1700181;82;20746;-77
2021/07/26 02:05:27;;;;;;;;;;;;;;;22.72;64.65;99849.54;1703045;82;20150;-77
2021/07/26 02:07:53;;;;;;;;;;;;;;;22.72;64.51;99848.19;1699452;82;21184;-77
2021/07/26 02:10:20;;;;;;;;;;;;;;;22.72;64.65;99843.61;1706760;82;20202;-78
2021/07/26 02:12:45;;;;;;;;;;;;;;;22.70;64.56;99842.22;1710775;82;20388;-82
2021/07/26 02:15:11;;;;;;;;;;;;;;;22.71;64.55;99846.55;1697223;82;20149;-77
2021/07/26 02:17:37;;;;;;;;;;;;;;;22.71;64.49;99843.31;1704870;83;20180;-77
2021/07/26 02:20:04;;;;;;;;;;;;;;;22.76;64.33;99842.59;1711622;82;21814;-77
2021/07/26 02:22:29;;;;;;;;;;;;;;;22.75;64.29;99839.63;1699870;82;20196;-76
2021/07/26 02:24:55;;;;;;;;;;;;;;;22.73;64.09;99836.34;1705820;83;20268;-77
2021/07/26 02:27:20;;;;;;;;;;;;;;;22.73;64.24;99833.66;1700652;82;20126;-79
2021/07/26 02:29:46;;;;;;;;;;;;;;;22.73;64.19;99825.58;1683120;83;20336;-78
2021/07/26 02:32:12;;;;;;;;;;;;;;;22.73;64.27;99829.61;1698286;82;21068;-79
2021/07/26 02:34:37;;;;;;;;;;;;;;;22.69;64.33;99823.11;1712547;82;21231;-77
2021/07/26 02:37:03;;;;;;;;;;;;;;;22.75;64.13;99828.32;1705348;82;20198;-78
2021/07/26 02:39:28;;;;;;;;;;;;;;;22.74;64.09;99823.98;1703974;82;20169;-77
2021/07/26 02:41:54;;;;;;;;;;;;;;;22.77;64.01;99827.53;1717671;82;20162;-78
2021/07/26 02:44:20;;;;;;;;;;;;;;;22.78;63.98;99829.72;1710871;82;21036;-75
2021/07/26 02:46:45;;;;;;;;;;;;;;;22.76;63.94;99821.05;1713704;82;20471;-81
2021/07/26 02:49:11;;;;;;;;;;;;;;;22.75;63.92;99824.83;1712477;82;20146;-80
2021/07/26 02:51:36;;;;;;;;;;;;;;;22.73;64.01;99830.96;1695267;82;20894;-77
2021/07/26 02:54:02;;;;;;;;;;;;;;;22.74;64.08;99825.87;1706020;82;20249;-74
2021/07/26 02:56:27;;;;;;;;;;;;;;;22.73;64.04;99820.19;1704249;82;21047;-78
2021/07/26 02:58:55;;;;;;;;;;;;;;;22.71;64.14;99816.94;1717279;82;20433;-80
2021/07/26 03:01:20;;;;;;;;;;;;;;;22.69;64.25;99816.38;1707249;82;20527;-77
2021/07/26 03:03:46;;;;;;;;;;;;;;;22.69;64.31;99821.22;1708060;82;20186;-77
2021/07/26 03:06:15;;;;;;;;;;;;;;;22.72;64.21;99817.23;1714859;82;20574;-76
2021/07/26 03:08:41;;;;;;;;;;;;;;;22.72;64.23;99814.55;1691501;82;21294;-77
2021/07/26 03:11:10;;;;;;;;;;;;;;;22.73;64.25;99816.16;1713817;82;20226;-77
2021/07/26 03:13:34;;;;;;;;;;;;;;;22.77;64.17;99820.00;1707712;83;20143;-76
2021/07/26 03:16:06;;;;;;;;;;;;;;;22.81;64.14;99817.63;1709747;83;20156;-76
2021/07/26 03:18:32;;;;;;;;;;;;;;;22.83;64.00;99825.75;1714125;82;20216;-79
2021/07/26 03:20:58;;;;;;;;;;;;;;;22.88;63.89;99811.55;1702582;82;21194;-76
2021/07/26 03:23:23;;;;;;;;;;;;;;;22.85;63.91;99815.55;1714667;82;20478;-77
2021/07/26 03:25:49;;;;;;;;;;;;;;;22.90;63.90;99810.25;1708263;82;20144;-76
2021/07/26 03:28:14;;;;;;;;;;;;;;;22.99;63.82;99809.29;1695230;82;20140;-77
2021/07/26 03:30:40;;;;;;;;;;;;;;;22.90;63.89;99810.25;1701563;82;20181;-76
2021/07/26 03:33:06;;;;;;;;;;;;;;;22.93;63.87;99810.27;1707578;82;21288;-78
2021/07/26 03:35:31;;;;;;;;;;;;;;;22.97;63.80;99807.92;1708396;82;20182;-76
2021/07/26 03:37:57;;;;;;;;;;;;;;;22.99;63.82;99807.14;1707548;82;20142;-78
2021/07/26 03:40:23;;;;;;;;;;;;;;;23.04;63.72;99803.16;1708518;82;20147;-79
2021/07/26 03:42:48;;;;;;;;;;;;;;;23.01;63.75;99804.49;1696027;82;20277;-79
2021/07/26 03:45:15;;;;;;;;;;;;;;;23.02;63.79;99802.06;1697388;82;21444;-77
2021/07/26 03:47:41;;;;;;;;;;;;;;;23.09;63.72;99805.98;1702846;82;20168;-77
2021/07/26 03:50:10;;;;;;;;;;;;;;;23.19;63.77;99811.50;1711588;83;20251;-79
2021/07/26 03:52:50;;;;;;;;;;;;;;;23.30;63.50;99807.06;1705988;82;20181;-77
2021/07/26 03:55:27;;;;;;;;;;;;;;;23.34;63.26;99804.17;1701107;82;20181;-81
2021/07/26 03:57:53;;;;;;;;;;;;;;;23.42;62.93;99803.73;1710443;82;21275;-80
2021/07/26 04:00:21;;;;;;;;;;;;;;;23.47;62.68;99794.89;1713281;82;20241;-76
2021/07/26 04:02:48;;;;;;;;;;;;;;;23.51;62.65;99798.73;1701963;82;20158;-77
2021/07/26 04:05:51;;;;;;;;;;;;;;;23.52;62.50;99800.34;1688012;83;20720;-76
2021/07/26 04:07:48;;;;;;;;;;;;;;;23.55;62.48;99793.09;1698488;82;20131;-76
2021/07/26 04:10:14;;;;;;;;;;;;;;;23.58;62.39;99796.64;1710457;82;21124;-75
2021/07/26 04:12:43;;;;;;;;;;;;;;;23.60;62.30;99797.22;1708869;82;20191;-75
2021/07/26 04:15:10;;;;;;;;;;;;;;;23.69;62.21;99803.52;1701518;82;20527;-76
2021/07/26 04:17:35;;;;;;;;;;;;;;;23.71;62.15;99802.72;1712719;82;20396;-76
2021/07/26 04:20:02;;;;;;;;;;;;;;;23.73;61.98;99799.26;1708716;82;20127;-77
2021/07/26 04:22:28;;;;;;;;;;;;;;;23.73;62.08;99802.76;1707271;82;21127;-75
2021/07/26 04:24:54;;;;;;;;;;;;;;;23.76;62.05;99809.54;1713189;82;21018;-77
2021/07/26 04:27:19;;;;;;;;;;;;;;;23.78;62.03;99807.39;1704139;82;20156;-77
2021/07/26 04:29:45;;;;;;;;;;;;;;;23.79;62.06;99803.64;1706112;82;20219;-79
2021/07/26 04:32:11;;;;;;;;;;;;;;;23.81;61.97;99809.59;1704730;82;20143;-77
2021/07/26 04:34:37;;;;;;;;;;;;;;;23.89;61.87;99814.55;1714320;83;22081;-76
2021/07/26 04:37:03;;;;;;;;;;;;;;;23.88;61.88;99821.04;1712204;82;20360;-77
2021/07/26 04:39:28;;;;;;;;;;;;;;;23.95;61.77;99813.55;1708820;82;20330;-77
2021/07/26 04:41:54;;;;;;;;;;;;;;;23.98;61.95;99815.73;1705378;82;20722;-76
2021/07/26 04:44:19;;;;;;;;;;;;;;;24.03;61.91;99816.88;1717186;82;20190;-75
2021/07/26 04:46:45;;;;;;;;;;;;;;;24.10;61.55;99817.47;1699847;82;21131;-77
2021/07/26 04:49:11;;;;;;;;;;;;;;;24.13;61.69;99811.56;1703570;82;20146;-77
2021/07/26 04:51:36;;;;;;;;;;;;;;;24.19;61.54;99810.55;1704010;82;20150;-76
2021/07/26 04:54:02;;;;;;;;;;;;;;;24.26;61.30;99813.86;1711459;82;20145;-76
2021/07/26 04:56:27;;;;;;;;;;;;;;;24.27;61.45;99812.80;1702809;82;20564;-75
2021/07/26 04:58:53;;;;;;;;;;;;;;;24.34;61.42;99817.44;1709114;82;21081;-79
2021/07/26 05:01:18;;;;;;;;;;;;;;;24.37;61.40;99808.84;1704623;83;20158;-76
2021/07/26 05:03:44;;;;;;;;;;;;;;;24.46;61.56;99818.64;1713782;82;20145;-76
2021/07/26 05:06:09;;;;;;;;;;;;;;;24.52;61.39;99810.06;1698812;83;20145;-79
2021/07/26 05:08:35;;;;;;;;;;;;;;;24.53;61.40;99816.55;1705631;82;20202;-82
2021/07/26 05:11:01;;;;;;;;;;;;;;;24.59;61.28;99808.52;1687531;82;21818;-76
2021/07/26 05:13:26;;;;;;;;;;;;;;;24.63;61.31;99810.45;1704208;82;20190;-77
2021/07/26 05:15:52;;;;;;;;;;;;;;;24.64;61.43;99816.65;1700872;82;20357;-77
2021/07/26 05:18:18;;;;;;;;;;;;;;;24.69;61.44;99809.41;1709156;82;20680;-78
2021/07/26 05:20:43;;;;;;;;;;;;;;;24.72;61.41;99800.80;1711544;82;20146;-77
2021/07/26 05:23:09;;;;;;;;;;;;;;;24.79;61.52;99799.77;1698589;83;21100;-78
2021/07/26 05:25:35;;;;;;;;;;;;;;;24.82;61.75;99787.09;1709288;82;20103;-83
2021/07/26 05:28:01;;;;;;;;;;;;;;;24.87;61.68;99790.63;1699696;82;20130;-79
2021/07/26 05:30:26;;;;;;;;;;;;;;;25.00;61.47;99796.13;1704159;82;21445;-77
2021/07/26 05:32:53;;;;;;;;;;;;;;;25.05;61.49;99786.70;1702094;82;20195;-79
2021/07/26 05:35:19;;;;;;;;;;;;;;;25.18;61.47;99786.76;1702772;82;21161;-81
2021/07/26 05:37:45;;;;;;;;;;;;;;;25.23;61.63;99783.27;1715976;82;20183;-82
2021/07/26 05:40:11;;;;;;;;;;;;;;;25.25;60.90;99781.14;1706102;82;20178;-77
2021/07/26 05:42:37;;;;;;;;;;;;;;;25.28;61.12;99781.97;1686189;83;20171;-77
2021/07/26 05:45:07;;;;;;;;;;;;;;;25.31;61.22;99788.23;1715316;82;20435;-80
2021/07/26 05:47:33;;;;;;;;;;;;;;;25.31;61.08;99786.88;1704420;82;20722;-78
2021/07/26 05:49:58;;;;;;;;;;;;;;;25.41;61.20;99784.75;1717006;82;20146;-77
2021/07/26 05:52:24;;;;;;;;;;;;;;;25.50;61.52;99777.77;1713458;82;20999;-77
2021/07/26 05:54:50;;;;;;;;;;;;;;;25.59;61.11;99790.22;1711276;82;20248;-77
2021/07/26 05:57:17;;;;;;;;;;;;;;;25.64;61.00;99805.13;1713460;83;20127;-78
2021/07/26 05:59:43;;;;;;;;;;;;;;;25.70;60.80;99814.89;1708784;82;21279;-81
2021/07/26 06:02:09;;;;;;;;;;;;;;;25.75;60.70;99825.72;1707719;82;20188;-77
2021/07/26 06:04:35;;;;;;;;;;;;;;;25.82;60.69;99838.18;1711406;82;20368;-81
2021/07/26 06:07:01;;;;;;;;;;;;;;;25.90;60.63;99844.42;1706508;82;20646;-76
2021/07/26 06:09:26;;;;;;;;;;;;;;;25.93;60.68;99838.48;1703763;82;20212;-77
2021/07/26 06:11:52;;;;;;;;;;;;;;;26.00;60.51;99846.40;1704551;82;21087;-78
2021/07/26 06:14:18;;;;;;;;;;;;;;;26.06;60.06;99850.20;1704167;82;20132;-75
2021/07/26 06:16:45;;;;;;;;;;;;;;;26.10;60.27;99845.89;1714298;82;20215;-75
2021/07/26 06:19:11;;;;;;;;;;;;;;;26.07;60.22;99847.77;1706230;82;20181;-77
2021/07/26 06:21:48;;;;;;;;;;;;;;;26.13;60.53;99849.41;1706498;82;20233;-78
2021/07/26 06:24:14;;;;;;;;;;;;;;;26.18;60.46;99854.55;1714809;82;21199;-76
2021/07/26 06:26:40;;;;;;;;;;;;;;;26.11;60.10;99850.75;1716335;82;20165;-82
2021/07/26 06:29:05;;;;;;;;;;;;;;;26.08;60.19;99850.73;1709414;82;20143;-80
2021/07/26 06:31:35;;;;;;;;;;;;;;;26.14;59.97;99849.66;1702029;82;20790;-77
2021/07/26 06:34:02;;;;;;;;;;;;;;;26.11;60.13;99862.92;1703367;82;20448;-77
2021/07/26 06:36:30;;;;;;;;;;;;;;;26.19;59.37;99857.53;1713788;82;21270;-77
2021/07/26 06:38:57;;;;;;;;;;;;;;;26.11;59.79;99857.52;1714947;82;21232;-81
2021/07/26 06:41:23;;;;;;;;;;;;;;;26.00;59.80;99858.02;1707176;82;20183;-77
2021/07/26 06:43:52;;;;;;;;;;;;;;;26.04;60.05;99852.36;1710959;82;20197;-81
2021/07/26 06:46:18;;;;;;;;;;;;;;;26.00;60.61;99863.98;1702315;82;20175;-78
2021/07/26 06:48:44;;;;;;;;;;;;;;;26.06;60.77;99871.04;1703296;83;22002;-78
2021/07/26 06:51:09;;;;;;;;;;;;;;;25.93;60.97;99872.30;1701239;82;20192;-76
2021/07/26 06:53:35;;;;;;;;;;;;;;;25.94;61.23;99868.52;1706500;82;20146;-77
2021/07/26 06:56:04;;;;;;;;;;;;;;;25.93;61.42;99877.70;1704418;82;20129;-77
2021/07/26 06:58:31;;;;;;;;;;;;;;;25.91;61.26;99879.87;1704759;83;20130;-78
2021/07/26 07:01:07;;;;;;;;;;;;;;;25.98;61.09;99888.60;1714034;82;21114;-76
2021/07/26 07:03:33;;;;;;;;;;;;;;;25.85;61.62;99882.28;1703044;82;20519;-76
2021/07/26 07:06:02;;;;;;;;;;;;;;;25.71;61.67;99882.75;1711064;82;20169;-77
2021/07/26 07:08:28;;;;;;;;;;;;;;;25.69;61.71;99880.86;1714275;82;20256;-76
2021/07/26 07:11:12;;;;;;;;;;;;;;;25.65;61.79;99879.75;1699207;82;20141;-77
2021/07/26 07:13:39;;;;;;;;;;;;;;;25.62;62.72;99884.33;1700944;82;22104;-78
2021/07/26 07:16:10;;;;;;;;;;;;;;;25.66;63.29;99886.80;1702838;82;20205;-78
2021/07/26 07:18:36;;;;;;;;;;;;;;;25.64;63.15;99883.55;1695677;83;20122;-77
2021/07/26 07:21:01;;;;;;;;;;;;;;;25.71;62.53;99881.41;1686349;82;20138;-77
2021/07/26 07:23:27;;;;;;;;;;;;;;;25.77;62.34;99880.34;1711992;83;20229;-77
2021/07/26 07:25:57;;;;;;;;;;;;;;;25.74;62.57;99876.82;1701591;82;21060;-77
2021/07/26 07:28:24;;;;;;;;;;;;;;;25.74;62.23;99880.88;1689808;83;20180;-81
2021/07/26 07:30:50;;;;;;;;;;;;;;;25.82;62.60;99881.46;1706963;82;20213;-79
2021/07/26 07:33:16;;;;;;;;;;;;;;;25.69;62.97;99882.22;1696387;83;20834;-75
2021/07/26 07:35:41;;;;;;;;;;;;;;;25.85;62.60;99880.93;1705744;82;20192;-77
2021/07/26 07:38:08;;;;;;;;;;;;;;;25.96;62.49;99881.23;1713571;82;21080;-76
2021/07/26 07:40:37;;;;;;;;;;;;;;;25.98;62.45;99876.42;1712892;82;20269;-77
2021/07/26 07:43:02;;;;;;;;;;;;;;;25.96;62.30;99882.59;1699377;82;20123;-78
2021/07/26 07:45:27;;;;;;;;;;;;;;;25.94;62.06;99884.76;1700523;83;20151;-77
2021/07/26 07:47:56;;;;;;;;;;;;;;;25.99;62.31;99879.38;1707353;82;20162;-77
2021/07/26 07:50:24;;;;;;;;;;;;;;;26.09;62.12;99880.78;1712212;82;21204;-77
2021/07/26 07:52:49;;;;;;;;;;;;;;;26.03;62.25;99880.49;1696790;82;20158;-77
2021/07/26 07:55:15;;;;;;;;;;;;;;;25.99;62.42;99880.73;1715841;82;20146;-76
2021/07/26 07:57:41;;;;;;;;;;;;;;;26.06;62.40;99878.61;1706855;82;20126;-78
2021/07/26 08:00:13;;;;;;;;;;;;;;;26.03;62.58;99877.78;1711928;82;20195;-77
2021/07/26 08:02:35;;;;;;;;;;;;;;;26.13;62.30;99879.18;1707420;82;20111;-80
2021/07/26 08:05:01;;;;;;;;;;;;;;;26.15;62.02;99864.03;1706382;83;20175;-81
2021/07/26 08:07:27;;;;;;;;;;;;;;;26.21;61.96;99875.66;1704628;82;20206;-79
2021/07/26 08:09:52;;;;;;;;;;;;;;;26.28;61.89;99868.11;1704946;83;20199;-78
2021/07/26 08:12:18;;;;;;;;;;;;;;;26.35;61.48;99871.36;1707766;82;20174;-81
2021/07/26 08:14:45;;;;;;;;;;;;;;;26.36;61.87;99881.11;1707681;82;21170;-78
2021/07/26 08:17:10;;;;;;;;;;;;;;;26.42;61.34;99882.75;1708003;82;20173;-81
2021/07/26 08:19:36;;;;;;;;;;;;;;;26.39;61.44;99876.52;1707758;82;20126;-80
2021/07/26 08:22:02;;;;;;;;;;;;;;;26.46;61.49;99875.73;1706394;82;20161;-77
2021/07/26 08:24:27;;;;;;;;;;;;;;;26.55;61.27;99880.61;1711578;82;20317;-78
2021/07/26 08:26:53;;;;;;;;;;;;;;;26.65;61.08;99877.91;1700917;82;21047;-78
2021/07/26 08:29:22;;;;;;;;;;;;;;;26.67;61.31;99878.48;1698723;82;20151;-77
2021/07/26 08:31:50;;;;;;;;;;;;;;;26.68;61.47;99869.28;1695699;83;20270;-77
2021/07/26 08:34:15;;;;;;;;;;;;;;;26.69;61.59;99868.18;1710853;82;20146;-78
2021/07/26 08:36:40;;;;;;;;;;;;;;;26.81;61.37;99873.34;1700476;82;20134;-78
2021/07/26 08:39:08;;;;;;;;;;;;;;;26.97;61.27;99875.49;1714544;83;21006;-79
2021/07/26 08:41:35;;;;;;;;;;;;;;;26.94;61.04;99869.27;1707581;82;20095;-78
2021/07/26 08:44:03;;;;;;;;;;;;;;;26.98;60.57;99878.48;1695122;82;20559;-80
2021/07/26 08:46:29;;;;;;;;;;;;;;;26.96;60.66;99867.11;1703017;82;20437;-79
2021/07/26 08:48:55;;;;;;;;;;;;;;;27.02;60.34;99870.09;1717771;82;20143;-79
2021/07/26 08:51:20;;;;;;;;;;;;;;;27.18;60.28;99874.94;1711746;83;21013;-78
2021/07/26 08:53:51;;;;;;;;;;;;;;;27.01;60.24;99867.10;1711026;82;20215;-78
2021/07/26 08:56:17;;;;;;;;;;;;;;;27.02;60.34;99861.41;1702688;82;20544;-78
2021/07/26 08:58:43;;;;;;;;;;;;;;;27.15;60.04;99870.87;1702466;83;20209;-78
2021/07/26 09:01:12;;;;;;;;;;;;;;;27.20;60.02;99866.78;1703181;82;20532;-82
2021/07/26 09:03:37;;;;;;;;;;;;;;;27.13;60.10;99866.27;1711044;82;21197;-78
2021/07/26 09:06:03;;;;;;;;;;;;;;;27.11;60.25;99867.07;1709445;82;20148;-79
2021/07/26 09:08:33;;;;;;;;;;;;;;;26.98;60.58;99868.45;1713361;83;20203;-79
2021/07/26 09:11:05;;;;;;;;;;;;;;;26.98;60.38;99873.06;1706054;82;20146;-79
2021/07/26 09:13:39;;;;;;;;;;;;;;;26.85;61.20;99873.88;1708491;82;20214;-78
2021/07/26 09:16:21;;;;;;;;;;;;;;;26.89;61.11;99876.05;1712033;83;21030;-79
2021/07/26 09:19:03;;;;;;;;;;;;;;;26.74;61.21;99876.33;1708273;82;20183;-81
2021/07/26 09:21:50;;;;;;;;;;;;;;;26.69;61.20;99869.02;1707183;82;20210;-77
2021/07/26 09:24:25;;;;;;;;;;;;;;;26.61;61.01;99878.98;1708944;82;20164;-77
2021/07/26 09:26:51;;;;;;;;;;;;;;;26.68;60.59;99873.34;1689603;83;20183;-81
2021/07/26 09:29:27;;;;;;;;;;;;;;;26.67;60.86;99885.25;1696993;82;21060;-78
2021/07/26 09:31:59;;;;;;;;;;;;;;;26.69;60.79;99884.43;1693347;82;20190;-82
2021/07/26 09:34:27;;;;;;;;;;;;;;;26.76;61.06;99890.41;1699738;83;20209;-81
2021/07/26 09:36:53;;;;;;;;;;;;;;;26.86;60.88;99880.11;1706804;82;20249;-78
2021/07/26 09:39:28;;;;;;;;;;;;;;;26.86;60.72;99882.30;1699250;82;20228;-80
2021/07/26 09:41:56;;;;;;;;;;;;;;;26.99;60.68;99880.13;1713520;82;21118;-78
2021/07/26 09:44:24;;;;;;;;;;;;;;;27.08;60.80;99878.48;1703984;82;20179;-82
2021/07/26 09:46:50;;;;;;;;;;;;;;;27.14;59.94;99878.72;1699216;82;20305;-77
2021/07/26 09:49:18;;;;;;;;;;;;;;;27.25;59.70;99880.08;1697462;82;20160;-79
2021/07/26 09:52:04;;;;;;;;;;;;;;;27.37;59.33;99883.34;1695742;82;20540;-79
2021/07/26 09:54:47;;;;;;;;;;;;;;;27.56;58.76;99883.03;1702305;82;21344;-78
2021/07/26 09:57:18;;;;;;;;;;;;;;;27.55;59.03;99885.45;1697538;82;20182;-79
2021/07/26 09:59:49;;;;;;;;;;;;;;;27.61;58.78;99888.15;1702890;82;20142;-78
2021/07/26 10:02:17;;;;;;;;;;;;;;;27.61;58.81;99896.28;1703655;82;20492;-79
2021/07/26 10:04:46;;;;;;;;;;;;;;;27.65;58.95;99900.08;1702897;82;20260;-79
2021/07/26 10:07:12;;;;;;;;;;;;;;;27.83;58.93;99883.20;1706943;82;21293;-77
2021/07/26 10:09:40;;;;;;;;;;;;;;;27.97;58.52;99889.39;1701239;82;20194;-81
2021/07/26 10:12:09;;;;;;;;;;;;;;;28.00;58.23;99892.91;1696523;83;20240;-79
2021/07/26 10:14:40;;;;;;;;;;;;;;;28.10;58.03;99890.16;1701748;82;20147;-77
2021/07/26 10:17:07;;;;;;;;;;;;;;;28.24;57.73;99888.44;1706695;82;20499;-76
2021/07/26 10:19:35;;;;;;;;;;;;;;;28.33;57.34;99885.95;1695756;82;21118;-80
2021/07/26 10:22:00;;;;;;;;;;;;;;;28.38;56.84;99885.11;1710956;82;20181;-80
2021/07/26 10:24:50;;;;;;;;;;;;;;;28.50;56.88;99880.70;1707755;82;20227;-80
2021/07/26 10:27:21;;;;;;;;;;;;;;;28.58;56.48;99886.87;1678130;83;21023;-77
2021/07/26 10:29:53;;;;;;;;;;;;;;;28.62;57.21;99883.34;1696271;82;20266;-84
2021/07/26 10:32:34;;;;;;;;;;;;;;;28.68;56.72;99876.50;1699617;83;21263;-79
2021/07/26 10:35:08;;;;;;;;;;;;;;;28.82;56.68;99873.39;1697267;82;20318;-78
2021/07/26 10:37:45;;;;;;;;;;;;;;;28.94;55.58;99864.87;1698451;82;33876;-79
2021/07/26 10:40:22;;;;;;;;;;;;;;;28.89;55.37;99871.16;1707032;82;20225;-78
2021/07/26 10:42:50;;;;;;;;;;;;;;;28.75;54.54;99859.34;1710850;82;20147;-79
2021/07/26 10:45:35;;;;;;;;;;;;;;;28.82;55.64;99867.95;1704929;82;21100;-78
2021/07/26 10:48:30;;;;;;;;;;;;;;;28.95;55.69;99864.59;1701535;82;20189;-78
2021/07/26 10:50:59;;;;;;;;;;;;;;;29.04;55.58;99863.95;1702517;82;20161;-78
2021/07/26 10:53:38;;;;;;;;;;;;;;;29.12;55.32;99854.64;1707341;82;20229;-78
2021/07/26 10:56:07;;;;;;;;;;;;;;;29.21;55.12;99857.59;1711690;82;20242;-76
2021/07/26 10:58:42;;;;;;;;;;;;;;;29.30;55.23;99857.22;1702158;82;21144;-78
2021/07/26 11:01:28;;;;;;;;;;;;;;;29.33;54.55;99853.92;1707282;83;20246;-77
2021/07/26 11:03:54;;;;;;;;;;;;;;;29.44;54.20;99852.43;1713787;82;20677;-77
2021/07/26 11:06:36;;;;;;;;;;;;;;;29.52;53.85;99854.50;1708286;82;20587;-78
2021/07/26 11:09:31;;;;;;;;;;;;;;;29.51;53.76;99856.98;1666206;82;20149;-77
2021/07/26 11:11:52;;;;;;;;;;;;;;;29.52;53.81;99851.78;1706172;83;20194;-80
2021/07/26 11:14:18;;;;;;;;;;;;;;;29.54;54.05;99853.12;1696325;82;20350;-79
2021/07/26 11:16:55;;;;;;;;;;;;;;;29.55;53.68;99838.95;1709553;82;20306;-78
2021/07/26 11:19:40;;;;;;;;;;;;;;;29.58;53.19;99841.09;1706018;82;20849;-76
2021/07/26 11:22:20;;;;;;;;;;;;;;;29.53;53.43;99843.89;1694523;83;20305;-76
2021/07/26 11:24:49;;;;;;;;;;;;;;;29.66;53.37;99845.91;1711675;82;21891;-78
2021/07/26 11:27:24;;;;;;;;;;;;;;;29.70;53.52;99844.21;1710207;82;20908;-76
2021/07/26 11:29:53;;;;;;;;;;;;;;;29.76;52.83;99842.25;1714753;82;20128;-77
2021/07/26 11:32:21;;;;;;;;;;;;;;;29.70;52.61;99847.49;1704074;82;20182;-76
2021/07/26 11:34:47;;;;;;;;;;;;;;;29.79;52.39;99846.30;1714684;82;20186;-78
2021/07/26 11:37:15;;;;;;;;;;;;;;;29.80;52.29;99843.32;1708423;82;20670;-78
2021/07/26 11:39:50;;;;;;;;;;;;;;;29.85;52.40;99839.72;1711569;82;20247;-78
2021/07/26 11:42:18;;;;;;;;;;;;;;;29.92;52.57;99836.06;1701206;82;20275;-78
2021/07/26 11:44:46;;;;;;;;;;;;;;;29.85;52.26;99841.89;1701349;83;20191;-78
2021/07/26 11:47:13;;;;;;;;;;;;;;;29.85;52.27;99837.00;1697590;83;21569;-77
2021/07/26 11:49:46;;;;;;;;;;;;;;;29.84;52.59;99833.45;1702358;83;21900;-82
2021/07/26 11:52:13;;;;;;;;;;;;;;;29.86;52.08;99836.71;1708950;82;20294;-80
2021/07/26 11:54:39;;;;;;;;;;;;;;;29.89;51.37;99829.84;1705308;82;20177;-80
2021/07/26 11:57:11;;;;;;;;;;;;;;;29.87;50.88;99825.26;1678136;82;20160;-81
2021/07/26 11:59:37;;;;;;;;;;;;;;;29.95;51.41;99831.40;1700913;83;20467;-78
2021/07/26 12:02:07;;;;;;;;;;;;;;;30.00;52.06;99817.73;1708209;82;21597;-78
2021/07/26 12:04:34;;;;;;;;;;;;;;;30.05;51.97;99814.92;1709254;82;20422;-77
2021/07/26 12:07:03;;;;;;;;;;;;;;;30.14;52.02;99818.34;1708312;82;20207;-80
2021/07/26 12:09:29;;;;;;;;;;;;;;;30.18;50.32;99820.17;1711530;82;20144;-78
2021/07/26 12:11:55;;;;;;;;;;;;;;;30.26;51.16;99814.61;1672920;83;20198;-78
2021/07/26 12:14:31;;;;;;;;;;;;;;;30.33;50.67;99813.70;1699066;83;21040;-82
2021/07/26 12:17:06;;;;;;;;;;;;;;;30.48;50.84;99814.58;1705951;82;20148;-77
2021/07/26 12:19:33;;;;;;;;;;;;;;;30.53;50.50;99802.22;1702090;83;20142;-82
2021/07/26 12:22:18;;;;;;;;;;;;;;;30.57;49.39;99799.97;1702590;83;20204;-83
2021/07/26 12:24:45;;;;;;;;;;;;;;;30.59;49.11;99804.59;1712049;82;20181;-80
2021/07/26 12:27:14;;;;;;;;;;;;;;;30.64;49.67;99804.22;1699784;82;21082;-77
2021/07/26 12:29:54;;;;;;;;;;;;;;;30.63;49.47;99804.79;1703866;82;20256;-77
2021/07/26 12:32:19;;;;;;;;;;;;;;;30.67;49.13;99805.81;1710825;82;20147;-80
2021/07/26 12:35:15;;;;;;;;;;;;;;;30.68;48.96;99803.33;1705318;82;20701;-80
2021/07/26 12:37:40;;;;;;;;;;;;;;;30.77;48.65;99810.27;1705849;82;20193;-78
2021/07/26 12:40:14;;;;;;;;;;;;;;;30.72;48.87;99802.99;1707849;82;21137;-83
2021/07/26 12:42:40;;;;;;;;;;;;;;;30.74;49.00;99803.49;1705187;82;20244;-77
2021/07/26 12:45:26;;;;;;;;;;;;;;;30.92;48.48;99811.90;1707397;82;20132;-80
2021/07/26 12:47:53;;;;;;;;;;;;;;;31.00;48.24;99800.34;1702428;82;20925;-79
2021/07/26 12:50:18;;;;;;;;;;;;;;;31.01;48.49;99800.58;1701286;82;20127;-81
2021/07/26 12:52:44;;;;;;;;;;;;;;;31.12;48.96;99799.83;1677053;83;22032;-80